sensor_id;sensor_type;location;lat;lon;timestamp;P1;durP1;ratioP1;P2;durP2;ratioP2
11191;SDS011;5652;48.406;10.820;2022-12-07T00:00:35;10.20;;;5.63;;
11191;SDS011;5652;48.406;10.820;2022-12-07T00:03:03;8.45;;;5.70;;
11191;SDS011;5652;48.406;10.820;2022-12-07T00:05:30;10.17;;;5.90;;
11191;SDS011;5652;48.406;10.820;2022-12-07T00:07:57;8.75;;;5.28;;
11191;SDS011;5652;48.406;10.820;2022-12-07T00:10:25;10.10;;;5.60;;
11191;SDS011;5652;48.406;10.820;2022-12-07T00:12:52;8.23;;;4.85;;
11191;SDS011;5652;48.406;10.820;2022-12-07T00:15:19;7.68;;;5.30;;
11191;SDS011;5652;48.406;10.820;2022-12-07T00:17:47;8.93;;;5.65;;
11191;SDS011;5652;48.406;10.820;2022-12-07T00:20:14;8.43;;;5.40;;
11191;SDS011;5652;48.406;10.820;2022-12-07T00:22:41;9.32;;;5.22;;
11191;SDS011;5652;48.406;10.820;2022-12-07T00:25:08;8.63;;;5.15;;
11191;SDS011;5652;48.406;10.820;2022-12-07T00:27:36;8.15;;;5.30;;
11191;SDS011;5652;48.406;10.820;2022-12-07T00:30:04;9.13;;;5.55;;
11191;SDS011;5652;48.406;10.820;2022-12-07T00:32:31;8.77;;;5.70;;
11191;SDS011;5652;48.406;10.820;2022-12-07T00:34:58;8.85;;;5.20;;
11191;SDS011;5652;48.406;10.820;2022-12-07T00:37:25;8.53;;;5.33;;
11191;SDS011;5652;48.406;10.820;2022-12-07T00:39:53;7.55;;;4.75;;
11191;SDS011;5652;48.406;10.820;2022-12-07T00:42:20;8.20;;;4.77;;
11191;SDS011;5652;48.406;10.820;2022-12-07T00:44:48;7.68;;;4.90;;
11191;SDS011;5652;48.406;10.820;2022-12-07T00:47:16;8.45;;;5.03;;
11191;SDS011;5652;48.406;10.820;2022-12-07T00:49:43;9.03;;;5.40;;
11191;SDS011;5652;48.406;10.820;2022-12-07T00:52:10;8.82;;;5.10;;
11191;SDS011;5652;48.406;10.820;2022-12-07T00:54:37;7.05;;;4.85;;
11191;SDS011;5652;48.406;10.820;2022-12-07T00:57:04;8.88;;;5.10;;
11191;SDS011;5652;48.406;10.820;2022-12-07T00:59:31;7.97;;;5.05;;
11191;SDS011;5652;48.406;10.820;2022-12-07T01:02:00;8.57;;;5.22;;
11191;SDS011;5652;48.406;10.820;2022-12-07T01:04:27;8.50;;;4.80;;
11191;SDS011;5652;48.406;10.820;2022-12-07T01:06:54;9.27;;;5.70;;
11191;SDS011;5652;48.406;10.820;2022-12-07T01:09:21;8.20;;;5.50;;
11191;SDS011;5652;48.406;10.820;2022-12-07T01:11:50;9.45;;;5.30;;
11191;SDS011;5652;48.406;10.820;2022-12-07T01:14:17;8.85;;;5.30;;
11191;SDS011;5652;48.406;10.820;2022-12-07T01:16:44;8.45;;;5.32;;
11191;SDS011;5652;48.406;10.820;2022-12-07T01:19:12;7.90;;;5.15;;
11191;SDS011;5652;48.406;10.820;2022-12-07T01:21:39;8.50;;;5.05;;
11191;SDS011;5652;48.406;10.820;2022-12-07T01:24:08;7.78;;;4.97;;
11191;SDS011;5652;48.406;10.820;2022-12-07T01:26:36;8.05;;;5.45;;
11191;SDS011;5652;48.406;10.820;2022-12-07T01:29:03;9.07;;;5.35;;
11191;SDS011;5652;48.406;10.820;2022-12-07T01:31:30;9.15;;;5.30;;
11191;SDS011;5652;48.406;10.820;2022-12-07T01:33:58;7.55;;;5.25;;
11191;SDS011;5652;48.406;10.820;2022-12-07T01:36:28;8.88;;;5.30;;
11191;SDS011;5652;48.406;10.820;2022-12-07T01:38:56;9.05;;;5.43;;
11191;SDS011;5652;48.406;10.820;2022-12-07T01:41:25;8.48;;;5.30;;
11191;SDS011;5652;48.406;10.820;2022-12-07T01:46:37;9.68;;;5.75;;
11191;SDS011;5652;48.406;10.820;2022-12-07T01:49:04;9.07;;;6.00;;
11191;SDS011;5652;48.406;10.820;2022-12-07T01:51:34;8.73;;;5.32;;
11191;SDS011;5652;48.406;10.820;2022-12-07T01:54:01;9.85;;;5.50;;
11191;SDS011;5652;48.406;10.820;2022-12-07T01:56:29;9.40;;;5.65;;
11191;SDS011;5652;48.406;10.820;2022-12-07T01:58:56;8.97;;;5.37;;
11191;SDS011;5652;48.406;10.820;2022-12-07T02:01:25;8.07;;;5.30;;
11191;SDS011;5652;48.406;10.820;2022-12-07T02:03:53;7.22;;;4.95;;
11191;SDS011;5652;48.406;10.820;2022-12-07T02:06:22;8.75;;;4.88;;
11191;SDS011;5652;48.406;10.820;2022-12-07T02:08:51;7.95;;;5.18;;
11191;SDS011;5652;48.406;10.820;2022-12-07T02:11:20;9.15;;;5.38;;
11191;SDS011;5652;48.406;10.820;2022-12-07T02:13:47;7.82;;;5.18;;
11191;SDS011;5652;48.406;10.820;2022-12-07T02:16:18;11.07;;;5.88;;
11191;SDS011;5652;48.406;10.820;2022-12-07T02:18:52;8.52;;;5.70;;
11191;SDS011;5652;48.406;10.820;2022-12-07T02:21:24;8.25;;;5.20;;
11191;SDS011;5652;48.406;10.820;2022-12-07T02:29:30;9.32;;;6.05;;
11191;SDS011;5652;48.406;10.820;2022-12-07T02:32:01;10.38;;;6.10;;
11191;SDS011;5652;48.406;10.820;2022-12-07T02:34:32;9.40;;;5.32;;
11191;SDS011;5652;48.406;10.820;2022-12-07T02:37:02;8.85;;;5.60;;
11191;SDS011;5652;48.406;10.820;2022-12-07T02:39:31;8.45;;;5.50;;
11191;SDS011;5652;48.406;10.820;2022-12-07T02:42:02;9.77;;;6.30;;
11191;SDS011;5652;48.406;10.820;2022-12-07T02:44:32;9.48;;;6.10;;
11191;SDS011;5652;48.406;10.820;2022-12-07T02:47:00;9.48;;;5.75;;
11191;SDS011;5652;48.406;10.820;2022-12-07T02:49:29;8.93;;;5.60;;
11191;SDS011;5652;48.406;10.820;2022-12-07T02:51:56;9.60;;;5.83;;
11191;SDS011;5652;48.406;10.820;2022-12-07T02:54:24;9.48;;;5.95;;
11191;SDS011;5652;48.406;10.820;2022-12-07T02:56:52;10.38;;;6.45;;
11191;SDS011;5652;48.406;10.820;2022-12-07T02:59:23;9.40;;;6.07;;
11191;SDS011;5652;48.406;10.820;2022-12-07T03:01:55;9.90;;;5.90;;
11191;SDS011;5652;48.406;10.820;2022-12-07T03:04:31;10.20;;;5.43;;
11191;SDS011;5652;48.406;10.820;2022-12-07T03:07:01;9.70;;;5.30;;
11191;SDS011;5652;48.406;10.820;2022-12-07T03:09:33;8.63;;;5.57;;
11191;SDS011;5652;48.406;10.820;2022-12-07T03:12:05;7.57;;;5.07;;
11191;SDS011;5652;48.406;10.820;2022-12-07T03:14:36;8.93;;;6.00;;
11191;SDS011;5652;48.406;10.820;2022-12-07T03:17:08;8.93;;;5.72;;
11191;SDS011;5652;48.406;10.820;2022-12-07T03:19:37;9.48;;;5.55;;
11191;SDS011;5652;48.406;10.820;2022-12-07T03:22:07;9.40;;;5.93;;
11191;SDS011;5652;48.406;10.820;2022-12-07T03:24:36;8.83;;;5.80;;
11191;SDS011;5652;48.406;10.820;2022-12-07T03:27:04;9.85;;;5.78;;
11191;SDS011;5652;48.406;10.820;2022-12-07T03:29:34;9.70;;;5.45;;
11191;SDS011;5652;48.406;10.820;2022-12-07T03:32:03;9.82;;;5.68;;
11191;SDS011;5652;48.406;10.820;2022-12-07T03:34:34;9.85;;;5.88;;
11191;SDS011;5652;48.406;10.820;2022-12-07T03:37:03;8.65;;;5.35;;
11191;SDS011;5652;48.406;10.820;2022-12-07T03:39:33;9.52;;;5.63;;
11191;SDS011;5652;48.406;10.820;2022-12-07T03:42:00;9.40;;;5.95;;
11191;SDS011;5652;48.406;10.820;2022-12-07T03:44:29;9.50;;;5.53;;
11191;SDS011;5652;48.406;10.820;2022-12-07T03:46:58;9.18;;;5.80;;
11191;SDS011;5652;48.406;10.820;2022-12-07T03:49:29;8.88;;;5.57;;
11191;SDS011;5652;48.406;10.820;2022-12-07T03:52:00;9.45;;;5.90;;
11191;SDS011;5652;48.406;10.820;2022-12-07T03:54:30;10.02;;;6.03;;
11191;SDS011;5652;48.406;10.820;2022-12-07T03:56:59;9.27;;;5.83;;
11191;SDS011;5652;48.406;10.820;2022-12-07T03:59:28;9.77;;;5.47;;
11191;SDS011;5652;48.406;10.820;2022-12-07T04:01:57;8.77;;;5.50;;
11191;SDS011;5652;48.406;10.820;2022-12-07T04:04:25;9.38;;;5.72;;
11191;SDS011;5652;48.406;10.820;2022-12-07T04:06:52;10.43;;;6.07;;
11191;SDS011;5652;48.406;10.820;2022-12-07T04:09:21;9.40;;;5.80;;
11191;SDS011;5652;48.406;10.820;2022-12-07T04:11:48;9.48;;;6.22;;
11191;SDS011;5652;48.406;10.820;2022-12-07T04:14:15;9.53;;;5.90;;
11191;SDS011;5652;48.406;10.820;2022-12-07T04:16:46;11.73;;;6.13;;
11191;SDS011;5652;48.406;10.820;2022-12-07T04:19:13;9.88;;;6.30;;
11191;SDS011;5652;48.406;10.820;2022-12-07T04:21:40;9.65;;;6.22;;
11191;SDS011;5652;48.406;10.820;2022-12-07T04:24:09;11.50;;;6.20;;
11191;SDS011;5652;48.406;10.820;2022-12-07T04:26:37;10.10;;;5.90;;
11191;SDS011;5652;48.406;10.820;2022-12-07T04:29:04;13.32;;;6.32;;
11191;SDS011;5652;48.406;10.820;2022-12-07T04:31:31;10.25;;;6.05;;
11191;SDS011;5652;48.406;10.820;2022-12-07T04:33:59;11.25;;;6.43;;
11191;SDS011;5652;48.406;10.820;2022-12-07T04:36:26;10.27;;;6.28;;
11191;SDS011;5652;48.406;10.820;2022-12-07T04:38:53;9.13;;;5.97;;
11191;SDS011;5652;48.406;10.820;2022-12-07T04:41:21;10.27;;;6.20;;
11191;SDS011;5652;48.406;10.820;2022-12-07T04:43:53;9.75;;;6.35;;
11191;SDS011;5652;48.406;10.820;2022-12-07T04:46:21;11.43;;;6.93;;
11191;SDS011;5652;48.406;10.820;2022-12-07T04:48:48;11.27;;;7.38;;
11191;SDS011;5652;48.406;10.820;2022-12-07T04:51:15;11.38;;;7.40;;
11191;SDS011;5652;48.406;10.820;2022-12-07T04:53:45;11.57;;;6.78;;
11191;SDS011;5652;48.406;10.820;2022-12-07T04:56:13;11.70;;;6.20;;
11191;SDS011;5652;48.406;10.820;2022-12-07T04:58:40;11.43;;;6.35;;
11191;SDS011;5652;48.406;10.820;2022-12-07T05:01:10;10.98;;;6.53;;
11191;SDS011;5652;48.406;10.820;2022-12-07T05:03:37;11.80;;;7.03;;
11191;SDS011;5652;48.406;10.820;2022-12-07T05:06:05;10.25;;;6.47;;
11191;SDS011;5652;48.406;10.820;2022-12-07T05:08:32;11.30;;;6.90;;
11191;SDS011;5652;48.406;10.820;2022-12-07T05:10:59;10.57;;;7.00;;
11191;SDS011;5652;48.406;10.820;2022-12-07T05:13:27;12.43;;;7.07;;
11191;SDS011;5652;48.406;10.820;2022-12-07T05:15:54;14.00;;;7.35;;
11191;SDS011;5652;48.406;10.820;2022-12-07T05:18:22;10.00;;;6.55;;
11191;SDS011;5652;48.406;10.820;2022-12-07T05:20:49;10.10;;;6.45;;
11191;SDS011;5652;48.406;10.820;2022-12-07T05:23:18;10.98;;;6.22;;
11191;SDS011;5652;48.406;10.820;2022-12-07T05:25:45;10.32;;;6.50;;
11191;SDS011;5652;48.406;10.820;2022-12-07T05:28:13;10.23;;;6.43;;
11191;SDS011;5652;48.406;10.820;2022-12-07T05:30:40;10.23;;;6.45;;
11191;SDS011;5652;48.406;10.820;2022-12-07T05:33:07;10.55;;;6.35;;
11191;SDS011;5652;48.406;10.820;2022-12-07T05:35:35;10.65;;;6.20;;
11191;SDS011;5652;48.406;10.820;2022-12-07T05:38:03;11.20;;;6.78;;
11191;SDS011;5652;48.406;10.820;2022-12-07T05:40:30;11.38;;;6.47;;
11191;SDS011;5652;48.406;10.820;2022-12-07T05:42:57;11.68;;;7.32;;
11191;SDS011;5652;48.406;10.820;2022-12-07T05:45:24;12.93;;;6.70;;
11191;SDS011;5652;48.406;10.820;2022-12-07T05:47:51;13.40;;;7.60;;
11191;SDS011;5652;48.406;10.820;2022-12-07T05:50:18;11.57;;;7.07;;
11191;SDS011;5652;48.406;10.820;2022-12-07T05:52:47;13.13;;;7.57;;
11191;SDS011;5652;48.406;10.820;2022-12-07T05:55:14;13.07;;;7.78;;
11191;SDS011;5652;48.406;10.820;2022-12-07T05:57:41;14.35;;;8.27;;
11191;SDS011;5652;48.406;10.820;2022-12-07T06:00:29;14.52;;;8.75;;
11191;SDS011;5652;48.406;10.820;2022-12-07T06:02:55;10.77;;;6.15;;
11191;SDS011;5652;48.406;10.820;2022-12-07T06:05:22;12.05;;;7.38;;
11191;SDS011;5652;48.406;10.820;2022-12-07T06:07:50;12.10;;;6.90;;
11191;SDS011;5652;48.406;10.820;2022-12-07T06:10:17;12.35;;;7.55;;
11191;SDS011;5652;48.406;10.820;2022-12-07T06:12:44;14.17;;;7.60;;
11191;SDS011;5652;48.406;10.820;2022-12-07T06:15:12;11.80;;;7.57;;
11191;SDS011;5652;48.406;10.820;2022-12-07T06:17:39;13.70;;;7.45;;
11191;SDS011;5652;48.406;10.820;2022-12-07T06:20:06;11.57;;;7.03;;
11191;SDS011;5652;48.406;10.820;2022-12-07T06:22:34;12.52;;;7.00;;
11191;SDS011;5652;48.406;10.820;2022-12-07T06:25:02;12.85;;;7.38;;
11191;SDS011;5652;48.406;10.820;2022-12-07T06:27:29;13.73;;;6.95;;
11191;SDS011;5652;48.406;10.820;2022-12-07T06:29:57;13.23;;;7.50;;
11191;SDS011;5652;48.406;10.820;2022-12-07T06:32:24;13.68;;;8.02;;
11191;SDS011;5652;48.406;10.820;2022-12-07T06:34:53;13.80;;;8.02;;
11191;SDS011;5652;48.406;10.820;2022-12-07T06:37:20;13.85;;;8.27;;
11191;SDS011;5652;48.406;10.820;2022-12-07T06:39:47;13.65;;;8.02;;
11191;SDS011;5652;48.406;10.820;2022-12-07T06:42:15;15.95;;;8.23;;
11191;SDS011;5652;48.406;10.820;2022-12-07T06:44:43;14.90;;;8.55;;
11191;SDS011;5652;48.406;10.820;2022-12-07T06:47:10;14.98;;;8.13;;
11191;SDS011;5652;48.406;10.820;2022-12-07T06:49:37;16.63;;;8.35;;
11191;SDS011;5652;48.406;10.820;2022-12-07T06:52:04;16.52;;;9.18;;
11191;SDS011;5652;48.406;10.820;2022-12-07T06:54:31;16.60;;;9.35;;
11191;SDS011;5652;48.406;10.820;2022-12-07T06:56:58;17.27;;;8.65;;
11191;SDS011;5652;48.406;10.820;2022-12-07T06:59:27;14.93;;;8.47;;
11191;SDS011;5652;48.406;10.820;2022-12-07T07:01:54;16.38;;;8.80;;
11191;SDS011;5652;48.406;10.820;2022-12-07T07:04:21;16.85;;;8.60;;
11191;SDS011;5652;48.406;10.820;2022-12-07T07:06:48;18.17;;;9.37;;
11191;SDS011;5652;48.406;10.820;2022-12-07T07:09:15;17.52;;;9.10;;
11191;SDS011;5652;48.406;10.820;2022-12-07T07:11:43;18.25;;;9.90;;
11191;SDS011;5652;48.406;10.820;2022-12-07T07:14:11;20.50;;;9.93;;
11191;SDS011;5652;48.406;10.820;2022-12-07T07:16:42;17.60;;;8.93;;
11191;SDS011;5652;48.406;10.820;2022-12-07T07:19:09;17.93;;;9.57;;
11191;SDS011;5652;48.406;10.820;2022-12-07T07:21:36;17.33;;;9.35;;
11191;SDS011;5652;48.406;10.820;2022-12-07T07:24:04;16.77;;;8.80;;
11191;SDS011;5652;48.406;10.820;2022-12-07T07:26:31;20.17;;;9.68;;
11191;SDS011;5652;48.406;10.820;2022-12-07T07:28:58;19.55;;;10.05;;
11191;SDS011;5652;48.406;10.820;2022-12-07T07:31:25;18.80;;;9.57;;
11191;SDS011;5652;48.406;10.820;2022-12-07T07:33:53;22.25;;;10.57;;
11191;SDS011;5652;48.406;10.820;2022-12-07T07:36:21;18.70;;;9.40;;
11191;SDS011;5652;48.406;10.820;2022-12-07T07:38:48;20.90;;;10.20;;
11191;SDS011;5652;48.406;10.820;2022-12-07T07:41:15;17.65;;;8.20;;
11191;SDS011;5652;48.406;10.820;2022-12-07T07:43:42;19.55;;;9.32;;
11191;SDS011;5652;48.406;10.820;2022-12-07T07:46:09;21.35;;;9.98;;
11191;SDS011;5652;48.406;10.820;2022-12-07T07:48:36;20.48;;;10.65;;
11191;SDS011;5652;48.406;10.820;2022-12-07T07:51:06;20.80;;;9.63;;
11191;SDS011;5652;48.406;10.820;2022-12-07T07:53:33;16.13;;;9.20;;
11191;SDS011;5652;48.406;10.820;2022-12-07T07:56:00;20.40;;;9.52;;
11191;SDS011;5652;48.406;10.820;2022-12-07T07:58:27;20.50;;;9.98;;
11191;SDS011;5652;48.406;10.820;2022-12-07T08:00:54;20.23;;;10.05;;
11191;SDS011;5652;48.406;10.820;2022-12-07T08:03:21;25.27;;;10.93;;
11191;SDS011;5652;48.406;10.820;2022-12-07T08:05:49;21.73;;;11.00;;
11191;SDS011;5652;48.406;10.820;2022-12-07T08:08:17;22.87;;;11.23;;
11191;SDS011;5652;48.406;10.820;2022-12-07T08:10:44;22.10;;;10.73;;
11191;SDS011;5652;48.406;10.820;2022-12-07T08:13:11;19.98;;;10.55;;
11191;SDS011;5652;48.406;10.820;2022-12-07T08:15:39;23.75;;;11.05;;
11191;SDS011;5652;48.406;10.820;2022-12-07T08:18:07;21.17;;;10.83;;
11191;SDS011;5652;48.406;10.820;2022-12-07T08:20:34;23.48;;;10.68;;
11191;SDS011;5652;48.406;10.820;2022-12-07T08:23:03;21.52;;;10.65;;
11191;SDS011;5652;48.406;10.820;2022-12-07T08:25:32;29.85;;;13.68;;
11191;SDS011;5652;48.406;10.820;2022-12-07T08:28:00;23.73;;;11.90;;
11191;SDS011;5652;48.406;10.820;2022-12-07T08:30:27;13.90;;;8.45;;
11191;SDS011;5652;48.406;10.820;2022-12-07T08:32:55;11.57;;;7.77;;
11191;SDS011;5652;48.406;10.820;2022-12-07T08:35:22;10.50;;;6.65;;
11191;SDS011;5652;48.406;10.820;2022-12-07T08:37:49;9.67;;;6.60;;
11191;SDS011;5652;48.406;10.820;2022-12-07T08:40:16;9.82;;;6.88;;
11191;SDS011;5652;48.406;10.820;2022-12-07T08:42:47;7.93;;;5.90;;
11191;SDS011;5652;48.406;10.820;2022-12-07T08:45:15;10.75;;;7.13;;
11191;SDS011;5652;48.406;10.820;2022-12-07T08:47:43;10.75;;;7.40;;
11191;SDS011;5652;48.406;10.820;2022-12-07T08:50:12;12.05;;;7.57;;
11191;SDS011;5652;48.406;10.820;2022-12-07T08:52:40;10.35;;;7.95;;
11191;SDS011;5652;48.406;10.820;2022-12-07T08:55:09;11.65;;;8.00;;
11191;SDS011;5652;48.406;10.820;2022-12-07T08:57:36;10.75;;;7.70;;
11191;SDS011;5652;48.406;10.820;2022-12-07T09:00:06;10.77;;;7.75;;
11191;SDS011;5652;48.406;10.820;2022-12-07T09:02:33;8.65;;;6.63;;
11191;SDS011;5652;48.406;10.820;2022-12-07T09:05:01;8.82;;;6.25;;
11191;SDS011;5652;48.406;10.820;2022-12-07T09:07:28;8.73;;;6.40;;
11191;SDS011;5652;48.406;10.820;2022-12-07T09:09:57;8.23;;;5.82;;
11191;SDS011;5652;48.406;10.820;2022-12-07T09:12:24;7.40;;;5.28;;
11191;SDS011;5652;48.406;10.820;2022-12-07T09:14:51;7.53;;;5.03;;
11191;SDS011;5652;48.406;10.820;2022-12-07T09:17:20;6.97;;;5.05;;
11191;SDS011;5652;48.406;10.820;2022-12-07T09:19:47;9.25;;;5.95;;
11191;SDS011;5652;48.406;10.820;2022-12-07T09:22:14;7.47;;;5.40;;
11191;SDS011;5652;48.406;10.820;2022-12-07T09:24:41;8.57;;;5.38;;
11191;SDS011;5652;48.406;10.820;2022-12-07T09:27:10;8.00;;;5.60;;
11191;SDS011;5652;48.406;10.820;2022-12-07T09:29:37;8.63;;;6.28;;
11191;SDS011;5652;48.406;10.820;2022-12-07T09:32:04;7.40;;;5.60;;
11191;SDS011;5652;48.406;10.820;2022-12-07T09:34:33;7.22;;;5.70;;
11191;SDS011;5652;48.406;10.820;2022-12-07T09:37:00;6.68;;;5.40;;
11191;SDS011;5652;48.406;10.820;2022-12-07T09:39:29;7.85;;;5.43;;
11191;SDS011;5652;48.406;10.820;2022-12-07T09:41:56;6.75;;;4.75;;
11191;SDS011;5652;48.406;10.820;2022-12-07T09:44:25;5.97;;;4.63;;
11191;SDS011;5652;48.406;10.820;2022-12-07T09:46:53;7.27;;;4.47;;
11191;SDS011;5652;48.406;10.820;2022-12-07T09:49:22;6.82;;;4.90;;
11191;SDS011;5652;48.406;10.820;2022-12-07T09:51:59;6.85;;;4.70;;
11191;SDS011;5652;48.406;10.820;2022-12-07T09:54:27;4.77;;;3.40;;
11191;SDS011;5652;48.406;10.820;2022-12-07T09:56:55;6.15;;;4.13;;
11191;SDS011;5652;48.406;10.820;2022-12-07T09:59:22;4.38;;;3.15;;
11191;SDS011;5652;48.406;10.820;2022-12-07T10:01:49;5.68;;;3.78;;
11191;SDS011;5652;48.406;10.820;2022-12-07T10:04:18;6.23;;;4.10;;
11191;SDS011;5652;48.406;10.820;2022-12-07T10:06:46;5.65;;;3.63;;
11191;SDS011;5652;48.406;10.820;2022-12-07T10:09:15;4.03;;;2.50;;
11191;SDS011;5652;48.406;10.820;2022-12-07T10:12:02;6.30;;;3.97;;
11191;SDS011;5652;48.406;10.820;2022-12-07T10:14:31;5.17;;;3.57;;
11191;SDS011;5652;48.406;10.820;2022-12-07T10:16:58;5.13;;;3.38;;
11191;SDS011;5652;48.406;10.820;2022-12-07T10:19:26;8.55;;;4.10;;
11191;SDS011;5652;48.406;10.820;2022-12-07T10:22:05;5.88;;;3.40;;
11191;SDS011;5652;48.406;10.820;2022-12-07T10:24:33;6.50;;;3.80;;
11191;SDS011;5652;48.406;10.820;2022-12-07T10:27:02;6.75;;;3.95;;
11191;SDS011;5652;48.406;10.820;2022-12-07T10:29:30;6.15;;;3.90;;
11191;SDS011;5652;48.406;10.820;2022-12-07T10:31:59;4.90;;;3.17;;
11191;SDS011;5652;48.406;10.820;2022-12-07T10:34:27;5.33;;;3.57;;
11191;SDS011;5652;48.406;10.820;2022-12-07T10:37:06;5.70;;;3.78;;
11191;SDS011;5652;48.406;10.820;2022-12-07T10:39:42;5.95;;;3.60;;
11191;SDS011;5652;48.406;10.820;2022-12-07T10:42:15;6.15;;;3.85;;
11191;SDS011;5652;48.406;10.820;2022-12-07T10:44:43;5.10;;;3.35;;
11191;SDS011;5652;48.406;10.820;2022-12-07T10:50:01;8.07;;;4.03;;
11191;SDS011;5652;48.406;10.820;2022-12-07T10:55:18;4.88;;;3.30;;
11191;SDS011;5652;48.406;10.820;2022-12-07T10:57:51;7.18;;;4.35;;
11191;SDS011;5652;48.406;10.820;2022-12-07T11:00:22;6.53;;;4.40;;
11191;SDS011;5652;48.406;10.820;2022-12-07T11:02:56;8.48;;;4.75;;
11191;SDS011;5652;48.406;10.820;2022-12-07T11:05:26;7.57;;;4.60;;
11191;SDS011;5652;48.406;10.820;2022-12-07T11:08:00;7.13;;;4.47;;
11191;SDS011;5652;48.406;10.820;2022-12-07T11:10:31;7.40;;;4.60;;
11191;SDS011;5652;48.406;10.820;2022-12-07T11:13:10;8.15;;;4.72;;
11191;SDS011;5652;48.406;10.820;2022-12-07T11:15:45;7.25;;;4.68;;
11191;SDS011;5652;48.406;10.820;2022-12-07T11:18:16;8.35;;;4.90;;
11191;SDS011;5652;48.406;10.820;2022-12-07T11:20:49;7.47;;;4.32;;
11191;SDS011;5652;48.406;10.820;2022-12-07T11:23:21;6.57;;;4.40;;
11191;SDS011;5652;48.406;10.820;2022-12-07T11:25:54;7.95;;;4.85;;
11191;SDS011;5652;48.406;10.820;2022-12-07T11:28:28;8.15;;;4.93;;
11191;SDS011;5652;48.406;10.820;2022-12-07T11:31:00;8.75;;;4.03;;
11191;SDS011;5652;48.406;10.820;2022-12-07T11:33:29;4.10;;;2.60;;
11191;SDS011;5652;48.406;10.820;2022-12-07T11:36:02;4.00;;;2.83;;
11191;SDS011;5652;48.406;10.820;2022-12-07T11:38:36;5.05;;;3.00;;
11191;SDS011;5652;48.406;10.820;2022-12-07T11:41:06;2.80;;;2.40;;
11191;SDS011;5652;48.406;10.820;2022-12-07T11:43:46;7.30;;;3.85;;
11191;SDS011;5652;48.406;10.820;2022-12-07T11:46:17;5.03;;;3.25;;
11191;SDS011;5652;48.406;10.820;2022-12-07T11:48:45;5.95;;;4.35;;
11191;SDS011;5652;48.406;10.820;2022-12-07T11:51:13;6.40;;;4.15;;
11191;SDS011;5652;48.406;10.820;2022-12-07T11:53:44;7.63;;;3.97;;
11191;SDS011;5652;48.406;10.820;2022-12-07T11:56:14;7.20;;;3.70;;
11191;SDS011;5652;48.406;10.820;2022-12-07T11:58:44;5.03;;;3.23;;
11191;SDS011;5652;48.406;10.820;2022-12-07T12:01:18;5.55;;;3.55;;
11191;SDS011;5652;48.406;10.820;2022-12-07T12:03:49;4.83;;;3.00;;
11191;SDS011;5652;48.406;10.820;2022-12-07T12:06:17;3.92;;;2.42;;
11191;SDS011;5652;48.406;10.820;2022-12-07T12:08:45;4.93;;;2.97;;
11191;SDS011;5652;48.406;10.820;2022-12-07T12:11:18;5.80;;;2.97;;
11191;SDS011;5652;48.406;10.820;2022-12-07T12:16:36;6.15;;;2.90;;
11191;SDS011;5652;48.406;10.820;2022-12-07T12:19:14;4.38;;;2.70;;
11191;SDS011;5652;48.406;10.820;2022-12-07T12:21:43;4.03;;;3.20;;
11191;SDS011;5652;48.406;10.820;2022-12-07T12:24:14;5.67;;;3.30;;
11191;SDS011;5652;48.406;10.820;2022-12-07T12:26:48;4.63;;;3.30;;
11191;SDS011;5652;48.406;10.820;2022-12-07T12:29:19;5.45;;;3.20;;
11191;SDS011;5652;48.406;10.820;2022-12-07T12:32:04;4.55;;;3.05;;
11191;SDS011;5652;48.406;10.820;2022-12-07T12:34:39;4.50;;;2.95;;
11191;SDS011;5652;48.406;10.820;2022-12-07T12:42:45;4.22;;;2.75;;
11191;SDS011;5652;48.406;10.820;2022-12-07T12:45:20;4.25;;;2.85;;
11191;SDS011;5652;48.406;10.820;2022-12-07T12:50:27;4.57;;;3.13;;
11191;SDS011;5652;48.406;10.820;2022-12-07T12:52:55;4.90;;;3.00;;
11191;SDS011;5652;48.406;10.820;2022-12-07T12:58:27;6.10;;;2.95;;
11191;SDS011;5652;48.406;10.820;2022-12-07T13:03:50;6.75;;;3.65;;
11191;SDS011;5652;48.406;10.820;2022-12-07T13:06:20;4.85;;;3.33;;
11191;SDS011;5652;48.406;10.820;2022-12-07T13:09:00;5.78;;;3.00;;
11191;SDS011;5652;48.406;10.820;2022-12-07T13:11:28;4.57;;;3.05;;
11191;SDS011;5652;48.406;10.820;2022-12-07T13:16:40;4.95;;;3.13;;
11191;SDS011;5652;48.406;10.820;2022-12-07T13:21:53;4.35;;;3.00;;
11191;SDS011;5652;48.406;10.820;2022-12-07T13:24:20;4.77;;;3.17;;
11191;SDS011;5652;48.406;10.820;2022-12-07T13:26:47;7.65;;;4.18;;
11191;SDS011;5652;48.406;10.820;2022-12-07T13:29:16;7.93;;;4.63;;
11191;SDS011;5652;48.406;10.820;2022-12-07T13:31:46;9.05;;;4.72;;
11191;SDS011;5652;48.406;10.820;2022-12-07T13:34:27;6.00;;;3.72;;
11191;SDS011;5652;48.406;10.820;2022-12-07T13:36:55;10.35;;;4.85;;
11191;SDS011;5652;48.406;10.820;2022-12-07T13:39:23;8.15;;;4.88;;
11191;SDS011;5652;48.406;10.820;2022-12-07T13:41:51;6.68;;;4.28;;
11191;SDS011;5652;48.406;10.820;2022-12-07T13:44:18;5.75;;;3.80;;
11191;SDS011;5652;48.406;10.820;2022-12-07T13:46:55;6.03;;;3.80;;
11191;SDS011;5652;48.406;10.820;2022-12-07T13:49:25;7.57;;;3.70;;
11191;SDS011;5652;48.406;10.820;2022-12-07T13:51:52;5.32;;;3.70;;
11191;SDS011;5652;48.406;10.820;2022-12-07T13:54:20;7.07;;;3.70;;
11191;SDS011;5652;48.406;10.820;2022-12-07T13:56:48;5.75;;;3.38;;
11191;SDS011;5652;48.406;10.820;2022-12-07T13:59:16;5.47;;;3.38;;
11191;SDS011;5652;48.406;10.820;2022-12-07T14:01:46;5.20;;;3.20;;
11191;SDS011;5652;48.406;10.820;2022-12-07T14:04:19;5.05;;;3.22;;
11191;SDS011;5652;48.406;10.820;2022-12-07T14:06:51;5.25;;;3.40;;
11191;SDS011;5652;48.406;10.820;2022-12-07T14:09:19;5.00;;;3.28;;
11191;SDS011;5652;48.406;10.820;2022-12-07T14:11:47;4.97;;;3.15;;
11191;SDS011;5652;48.406;10.820;2022-12-07T14:14:17;5.43;;;3.57;;
11191;SDS011;5652;48.406;10.820;2022-12-07T14:16:54;5.22;;;3.38;;
11191;SDS011;5652;48.406;10.820;2022-12-07T14:22:08;4.60;;;3.20;;
11191;SDS011;5652;48.406;10.820;2022-12-07T14:24:41;5.32;;;3.22;;
11191;SDS011;5652;48.406;10.820;2022-12-07T14:27:16;4.72;;;3.30;;
11191;SDS011;5652;48.406;10.820;2022-12-07T14:29:43;5.15;;;2.97;;
11191;SDS011;5652;48.406;10.820;2022-12-07T14:32:16;4.50;;;3.17;;
11191;SDS011;5652;48.406;10.820;2022-12-07T14:34:52;5.35;;;3.20;;
11191;SDS011;5652;48.406;10.820;2022-12-07T14:37:21;7.55;;;3.30;;
11191;SDS011;5652;48.406;10.820;2022-12-07T14:39:48;4.70;;;3.20;;
11191;SDS011;5652;48.406;10.820;2022-12-07T14:42:15;5.75;;;3.40;;
11191;SDS011;5652;48.406;10.820;2022-12-07T14:44:43;4.45;;;3.00;;
11191;SDS011;5652;48.406;10.820;2022-12-07T14:47:11;6.28;;;3.35;;
11191;SDS011;5652;48.406;10.820;2022-12-07T14:49:38;5.32;;;3.35;;
11191;SDS011;5652;48.406;10.820;2022-12-07T14:52:05;6.55;;;3.67;;
11191;SDS011;5652;48.406;10.820;2022-12-07T14:54:34;5.45;;;3.20;;
11191;SDS011;5652;48.406;10.820;2022-12-07T14:57:01;5.55;;;3.22;;
11191;SDS011;5652;48.406;10.820;2022-12-07T14:59:29;5.03;;;3.47;;
11191;SDS011;5652;48.406;10.820;2022-12-07T15:01:57;4.68;;;3.08;;
11191;SDS011;5652;48.406;10.820;2022-12-07T15:04:24;5.47;;;3.30;;
11191;SDS011;5652;48.406;10.820;2022-12-07T15:06:54;4.50;;;3.15;;
11191;SDS011;5652;48.406;10.820;2022-12-07T15:09:22;4.95;;;2.92;;
11191;SDS011;5652;48.406;10.820;2022-12-07T15:11:50;4.35;;;3.15;;
11191;SDS011;5652;48.406;10.820;2022-12-07T15:14:17;4.53;;;3.05;;
11191;SDS011;5652;48.406;10.820;2022-12-07T15:16:44;5.10;;;3.20;;
11191;SDS011;5652;48.406;10.820;2022-12-07T15:19:12;4.95;;;3.53;;
11191;SDS011;5652;48.406;10.820;2022-12-07T15:21:40;6.45;;;3.67;;
11191;SDS011;5652;48.406;10.820;2022-12-07T15:24:08;5.30;;;3.37;;
11191;SDS011;5652;48.406;10.820;2022-12-07T15:26:35;5.45;;;3.60;;
11191;SDS011;5652;48.406;10.820;2022-12-07T15:29:03;6.03;;;3.30;;
11191;SDS011;5652;48.406;10.820;2022-12-07T15:31:31;5.63;;;3.30;;